Time;durP1;ratioP1;P1;durP2;ratioP2;P2;SDS_P1;SDS_P2;PMS_P1;PMS_P2;Temp;Humidity;BMP_temperature;BMP_pressure;BME280_temperature;BME280_humidity;BME280_pressure;Samples;Min_cycle;Max_cycle;Signal;HPM_P1;HPM_P2
2022/09/30 00:00:19;;;;;;;7.60;3.92;;;;;;;;;;4988225;28;20219;-63
2022/09/30 00:02:44;;;;;;;6.47;4.30;;;;;;;;;;4991845;28;20213;-63
2022/09/30 00:05:09;;;;;;;6.30;4.50;;;;;;;;;;4993645;28;20205;-63
2022/09/30 00:07:34;;;;;;;7.25;4.60;;;;;;;;;;4994672;28;20715;-63
2022/09/30 00:10:00;;;;;;;9.40;4.30;;;;;;;;;;4997423;28;20299;-63
2022/09/30 00:12:26;;;;;;;8.38;5.03;;;;;;;;;;4997767;28;20204;-63
2022/09/30 00:14:51;;;;;;;7.65;5.30;;;;;;;;;;4998635;28;20587;-63
2022/09/30 00:17:17;;;;;;;7.43;4.78;;;;;;;;;;4994838;28;20228;-63
2022/09/30 00:19:42;;;;;;;7.60;4.60;;;;;;;;;;4991947;28;20208;-63
2022/09/30 00:22:07;;;;;;;9.15;5.45;;;;;;;;;;4991900;28;20247;-63
2022/09/30 00:24:33;;;;;;;7.50;5.03;;;;;;;;;;4994235;28;20211;-63
2022/09/30 00:26:58;;;;;;;7.47;5.65;;;;;;;;;;4998408;28;20584;-63
2022/09/30 00:29:23;;;;;;;8.73;5.32;;;;;;;;;;4998956;28;20510;-63
2022/09/30 00:31:48;;;;;;;7.18;4.43;;;;;;;;;;4999476;28;20671;-63
2022/09/30 00:34:14;;;;;;;8.43;5.22;;;;;;;;;;4997561;28;20445;-63
2022/09/30 00:36:39;;;;;;;6.80;4.45;;;;;;;;;;4998368;28;20249;-63
2022/09/30 00:39:05;;;;;;;8.85;4.18;;;;;;;;;;4998778;28;20270;-63
2022/09/30 00:41:30;;;;;;;6.70;4.10;;;;;;;;;;4990569;28;20401;-63
2022/09/30 00:43:56;;;;;;;8.57;3.97;;;;;;;;;;4992106;28;20334;-63
2022/09/30 00:46:30;;;;;;;6.22;3.70;;;;;;;;;;4991943;28;20739;-63
2022/09/30 00:48:55;;;;;;;6.75;3.50;;;;;;;;;;4995960;28;20208;-63
2022/09/30 00:51:28;;;;;;;5.70;3.70;;;;;;;;;;4998263;28;20671;-63
2022/09/30 00:53:54;;;;;;;5.28;3.03;;;;;;;;;;4996815;28;20294;-63
2022/09/30 00:56:20;;;;;;;4.95;3.00;;;;;;;;;;4995584;28;20235;-63
2022/09/30 00:58:46;;;;;;;5.43;3.25;;;;;;;;;;4996711;28;20208;-63
2022/09/30 01:01:13;;;;;;;5.68;2.97;;;;;;;;;;4996393;28;20728;-63
2022/09/30 01:03:39;;;;;;;4.75;2.92;;;;;;;;;;4992892;28;20208;-63
2022/09/30 01:06:05;;;;;;;5.82;2.70;;;;;;;;;;4991089;28;20220;-63
2022/09/30 01:08:31;;;;;;;4.95;2.50;;;;;;;;;;4991680;28;20690;-62
2022/09/30 01:10:56;;;;;;;4.60;2.35;;;;;;;;;;4994516;28;20547;-63
2022/09/30 01:13:22;;;;;;;4.65;2.75;;;;;;;;;;4997398;28;20239;-62
2022/09/30 01:15:52;;;;;;;4.68;2.55;;;;;;;;;;4995573;28;20277;-63
2022/09/30 01:18:20;;;;;;;4.57;2.20;;;;;;;;;;4995785;28;20243;-63
2022/09/30 01:20:49;;;;;;;4.65;2.22;;;;;;;;;;4997815;28;20204;-61
2022/09/30 01:23:25;;;;;;;7.78;2.30;;;;;;;;;;4995371;28;20301;-63
2022/09/30 01:25:52;;;;;;;4.72;2.08;;;;;;;;;;4993076;28;20220;-63
2022/09/30 01:28:30;;;;;;;4.68;1.95;;;;;;;;;;4990876;28;20216;-63
2022/09/30 01:31:21;;;;;;;4.30;2.10;;;;;;;;;;4990638;28;20220;-63
2022/09/30 01:34:03;;;;;;;6.07;2.08;;;;;;;;;;4995818;28;20690;-63
2022/09/30 01:36:29;;;;;;;3.70;2.00;;;;;;;;;;5002194;28;20228;-63
2022/09/30 01:38:59;;;;;;;4.10;2.08;;;;;;;;;;5003218;28;20223;-63
2022/09/30 01:41:27;;;;;;;5.93;2.35;;;;;;;;;;5002041;28;20342;-63
2022/09/30 01:43:53;;;;;;;6.15;2.58;;;;;;;;;;5001759;28;20255;-62
2022/09/30 01:46:24;;;;;;;4.63;2.53;;;;;;;;;;5003690;28;20227;-63
2022/09/30 01:48:54;;;;;;;5.53;2.60;;;;;;;;;;4995838;28;20269;-63
2022/09/30 01:51:31;;;;;;;4.97;2.70;;;;;;;;;;4971660;28;20217;-63
2022/09/30 01:53:59;;;;;;;4.55;2.53;;;;;;;;;;4990686;28;20315;-63
2022/09/30 01:56:34;;;;;;;5.53;2.78;;;;;;;;;;4993873;28;20471;-63
2022/09/30 01:59:00;;;;;;;5.75;2.30;;;;;;;;;;4994666;28;20208;-63
2022/09/30 02:01:30;;;;;;;4.28;2.33;;;;;;;;;;4994892;28;20296;-63
2022/09/30 02:03:56;;;;;;;5.05;2.42;;;;;;;;;;4995167;28;20663;-63
2022/09/30 02:06:23;;;;;;;5.13;2.72;;;;;;;;;;4994793;28;20223;-63
2022/09/30 02:08:50;;;;;;;7.47;2.60;;;;;;;;;;4997425;28;20209;-63
2022/09/30 02:11:19;;;;;;;4.82;2.53;;;;;;;;;;4990541;28;20223;-63
2022/09/30 02:14:03;;;;;;;3.92;2.33;;;;;;;;;;4987890;28;20415;-63
2022/09/30 02:16:31;;;;;;;5.13;2.75;;;;;;;;;;4990091;28;20220;-63
2022/09/30 02:19:00;;;;;;;5.20;2.70;;;;;;;;;;4994052;28;20320;-63
2022/09/30 02:21:26;;;;;;;7.53;2.80;;;;;;;;;;4994987;28;20208;-63
2022/09/30 02:23:53;;;;;;;5.15;3.22;;;;;;;;;;4995590;28;20634;-63
2022/09/30 02:26:20;;;;;;;5.60;3.47;;;;;;;;;;4996123;28;20212;-63
2022/09/30 02:28:48;;;;;;;6.85;4.45;;;;;;;;;;4994995;28;20208;-63
2022/09/30 02:31:14;;;;;;;8.52;5.05;;;;;;;;;;4996410;28;20219;-63
2022/09/30 02:33:43;;;;;;;8.70;5.57;;;;;;;;;;4989912;28;20604;-63
2022/09/30 02:36:09;;;;;;;7.95;5.20;;;;;;;;;;4988265;28;20228;-63
2022/09/30 02:38:37;;;;;;;8.98;5.55;;;;;;;;;;4988594;28;20808;-63
2022/09/30 02:41:05;;;;;;;9.27;5.88;;;;;;;;;;4992586;28;20216;-63
2022/09/30 02:43:30;;;;;;;12.23;6.47;;;;;;;;;;4995473;28;20695;-63
2022/09/30 02:46:04;;;;;;;10.30;6.10;;;;;;;;;;4995156;28;20215;-63
2022/09/30 02:48:58;;;;;;;9.23;6.70;;;;;;;;;;4993916;28;20231;-62
2022/09/30 02:51:29;;;;;;;12.40;6.28;;;;;;;;;;4995569;28;20582;-63
2022/09/30 02:53:55;;;;;;;8.80;5.95;;;;;;;;;;4995966;28;20391;-63
2022/09/30 02:56:30;;;;;;;9.80;6.57;;;;;;;;;;4991707;28;20751;-63
2022/09/30 02:58:56;;;;;;;11.13;6.60;;;;;;;;;;4987551;28;20220;-63
2022/09/30 03:01:21;;;;;;;11.18;7.07;;;;;;;;;;4987316;28;20209;-63
2022/09/30 03:03:58;;;;;;;9.10;6.88;;;;;;;;;;4991694;28;20228;-63
2022/09/30 03:06:23;;;;;;;9.55;6.93;;;;;;;;;;4994495;28;20283;-63
2022/09/30 03:08:49;;;;;;;11.13;7.13;;;;;;;;;;4994896;28;20696;-63
2022/09/30 03:11:16;;;;;;;11.32;7.03;;;;;;;;;;4993862;28;20275;-63
2022/09/30 03:13:57;;;;;;;10.50;7.45;;;;;;;;;;4994938;28;20209;-63
2022/09/30 03:16:41;;;;;;;10.55;7.63;;;;;;;;;;4994997;28;20332;-63
2022/09/30 03:19:15;;;;;;;14.40;8.30;;;;;;;;;;4991523;28;20215;-63
2022/09/30 03:21:40;;;;;;;11.07;7.60;;;;;;;;;;4988347;28;20216;-63
2022/09/30 03:24:15;;;;;;;13.77;8.77;;;;;;;;;;5000583;28;20200;-63
2022/09/30 03:26:45;;;;;;;12.20;7.55;;;;;;;;;;4994809;28;20346;-63
2022/09/30 03:29:14;;;;;;;10.68;7.88;;;;;;;;;;4995915;28;20211;-63
2022/09/30 03:31:43;;;;;;;12.40;8.05;;;;;;;;;;4996371;28;20302;-63
2022/09/30 03:34:18;;;;;;;10.85;7.93;;;;;;;;;;4995279;28;20294;-63
2022/09/30 03:36:48;;;;;;;10.25;7.32;;;;;;;;;;4994187;28;20414;-63
2022/09/30 03:39:23;;;;;;;11.35;8.43;;;;;;;;;;4994467;28;20687;-63
2022/09/30 03:41:57;;;;;;;10.30;8.23;;;;;;;;;;4991047;28;20212;-63
2022/09/30 03:44:26;;;;;;;10.57;7.43;;;;;;;;;;4988933;28;20208;-63
2022/09/30 03:46:52;;;;;;;11.90;8.50;;;;;;;;;;4991842;28;20281;-63
2022/09/30 03:49:20;;;;;;;11.95;7.78;;;;;;;;;;4996744;28;20291;-63
2022/09/30 03:51:45;;;;;;;11.30;7.60;;;;;;;;;;5005356;28;20217;-63
2022/09/30 03:54:11;;;;;;;14.45;8.48;;;;;;;;;;5005848;28;20622;-63
2022/09/30 03:56:41;;;;;;;11.68;8.32;;;;;;;;;;5005735;28;21110;-63
2022/09/30 03:59:09;;;;;;;13.60;8.85;;;;;;;;;;5005292;28;20672;-63
2022/09/30 04:01:34;;;;;;;12.18;8.63;;;;;;;;;;5005945;28;20209;-63
2022/09/30 04:04:00;;;;;;;12.02;7.97;;;;;;;;;;5002446;28;20212;-63
2022/09/30 04:06:25;;;;;;;11.97;8.33;;;;;;;;;;4988753;28;20884;-63
2022/09/30 04:08:52;;;;;;;12.40;8.57;;;;;;;;;;4991450;28;20223;-63
2022/09/30 04:11:18;;;;;;;11.57;7.65;;;;;;;;;;4977646;28;20255;-63
2022/09/30 04:13:43;;;;;;;10.82;8.35;;;;;;;;;;4998695;28;20240;-63
2022/09/30 04:16:08;;;;;;;12.35;8.18;;;;;;;;;;4999017;28;20354;-63
2022/09/30 04:18:34;;;;;;;11.98;8.40;;;;;;;;;;4997330;28;20766;-63
2022/09/30 04:21:00;;;;;;;11.98;8.60;;;;;;;;;;4997841;28;20295;-63
2022/09/30 04:23:25;;;;;;;12.75;8.35;;;;;;;;;;4996783;28;20215;-63
2022/09/30 04:25:51;;;;;;;11.90;8.35;;;;;;;;;;4997766;28;20592;-63
2022/09/30 04:28:17;;;;;;;10.32;7.63;;;;;;;;;;4990733;28;20506;-63
2022/09/30 04:30:42;;;;;;;10.18;7.45;;;;;;;;;;4992011;28;20542;-63
2022/09/30 04:33:07;;;;;;;10.88;7.63;;;;;;;;;;4991446;28;20239;-63
2022/09/30 04:35:35;;;;;;;12.57;7.83;;;;;;;;;;4997258;28;20278;-63
2022/09/30 04:38:01;;;;;;;11.68;7.55;;;;;;;;;;4998812;28;20257;-63
2022/09/30 04:40:26;;;;;;;12.20;7.38;;;;;;;;;;4997618;28;20212;-63
2022/09/30 04:42:55;;;;;;;11.00;7.20;;;;;;;;;;4998576;28;20571;-63
2022/09/30 04:45:20;;;;;;;10.63;7.30;;;;;;;;;;4996992;28;20216;-63
2022/09/30 04:47:45;;;;;;;11.82;7.50;;;;;;;;;;4997815;28;20220;-63
2022/09/30 04:50:12;;;;;;;14.10;7.25;;;;;;;;;;5001221;28;20217;-63
2022/09/30 04:52:40;;;;;;;13.70;7.63;;;;;;;;;;5007931;28;20652;-62
2022/09/30 04:55:06;;;;;;;13.93;8.70;;;;;;;;;;5007576;28;20434;-61
2022/09/30 04:57:31;;;;;;;11.52;7.63;;;;;;;;;;5008812;28;20584;-62
2022/09/30 04:59:56;;;;;;;11.18;7.35;;;;;;;;;;5009792;28;20209;-61
2022/09/30 05:02:22;;;;;;;12.32;7.30;;;;;;;;;;5012015;28;20266;-62
2022/09/30 05:04:47;;;;;;;12.82;7.50;;;;;;;;;;5013361;28;20254;-62
2022/09/30 05:07:12;;;;;;;12.05;7.03;;;;;;;;;;5014373;28;20208;-62
2022/09/30 05:09:38;;;;;;;11.23;7.43;;;;;;;;;;5013093;28;20208;-63
2022/09/30 05:12:03;;;;;;;11.77;7.70;;;;;;;;;;5015093;28;20204;-62
2022/09/30 05:14:29;;;;;;;10.77;7.65;;;;;;;;;;5013187;28;20296;-63
2022/09/30 05:16:54;;;;;;;12.68;8.95;;;;;;;;;;5011082;28;20524;-63
2022/09/30 05:19:19;;;;;;;12.52;8.20;;;;;;;;;;5014312;28;20239;-63
2022/09/30 05:21:45;;;;;;;14.55;9.20;;;;;;;;;;5014100;28;20721;-62
2022/09/30 05:24:10;;;;;;;13.13;8.27;;;;;;;;;;5012824;28;20204;-64
2022/09/30 05:26:36;;;;;;;14.40;8.90;;;;;;;;;;5014132;28;20263;-64
2022/09/30 05:29:01;;;;;;;13.97;9.03;;;;;;;;;;5012684;28;20212;-64
2022/09/30 05:31:26;;;;;;;15.15;8.68;;;;;;;;;;5015107;28;20235;-63
2022/09/30 05:33:54;;;;;;;12.60;8.60;;;;;;;;;;5014249;28;20224;-63
2022/09/30 05:36:19;;;;;;;12.90;8.10;;;;;;;;;;5011240;28;20359;-63
2022/09/30 05:38:44;;;;;;;13.40;8.43;;;;;;;;;;5012984;28;20693;-63
2022/09/30 05:41:10;;;;;;;13.50;8.68;;;;;;;;;;5013858;28;20243;-63
2022/09/30 05:43:36;;;;;;;15.18;8.85;;;;;;;;;;5012854;28;20584;-63
2022/09/30 05:46:02;;;;;;;12.25;8.63;;;;;;;;;;5014551;28;20649;-63
2022/09/30 05:48:27;;;;;;;13.90;7.80;;;;;;;;;;5012535;28;20232;-64
2022/09/30 05:50:53;;;;;;;14.65;10.05;;;;;;;;;;5009111;28;20204;-64
2022/09/30 05:53:18;;;;;;;13.30;8.90;;;;;;;;;;5019335;28;20250;-63
2022/09/30 05:55:45;;;;;;;14.50;9.13;;;;;;;;;;5027935;28;20227;-64
2022/09/30 05:58:10;;;;;;;11.90;8.83;;;;;;;;;;5017338;28;20696;-63
2022/09/30 06:00:37;;;;;;;15.63;9.82;;;;;;;;;;5007848;28;20251;-64
2022/09/30 06:03:03;;;;;;;15.48;10.15;;;;;;;;;;5007381;28;20262;-63
2022/09/30 06:05:28;;;;;;;13.77;10.25;;;;;;;;;;5007767;28;20208;-64
2022/09/30 06:07:54;;;;;;;13.77;9.27;;;;;;;;;;5012728;28;20216;-64
2022/09/30 06:10:19;;;;;;;13.68;9.20;;;;;;;;;;5022399;28;20269;-64
2022/09/30 06:12:44;;;;;;;18.88;10.55;;;;;;;;;;5008736;28;20208;-62
2022/09/30 06:15:10;;;;;;;24.50;12.23;;;;;;;;;;5007747;28;20212;-62
2022/09/30 06:17:35;;;;;;;20.60;10.27;;;;;;;;;;5007396;28;20263;-63
2022/09/30 06:20:01;;;;;;;27.48;12.18;;;;;;;;;;5011612;28;20227;-62
2022/09/30 06:22:26;;;;;;;25.63;12.20;;;;;;;;;;5027248;28;20235;-63
2022/09/30 06:24:51;;;;;;;29.63;10.57;;;;;;;;;;5027679;28;20219;-62
2022/09/30 06:27:16;;;;;;;32.05;11.98;;;;;;;;;;5025911;28;20676;-63
2022/09/30 06:29:42;;;;;;;27.08;12.02;;;;;;;;;;5027732;28;20226;-61
2022/09/30 06:32:07;;;;;;;32.85;13.23;;;;;;;;;;5019858;28;20223;-62
2022/09/30 06:34:32;;;;;;;22.20;12.18;;;;;;;;;;4977606;28;20306;-61
2022/09/30 06:36:58;;;;;;;15.65;10.95;;;;;;;;;;5005084;28;20248;-62
2022/09/30 06:39:25;;;;;;;18.02;11.70;;;;;;;;;;5005631;28;20486;-63
2022/09/30 06:41:51;;;;;;;24.63;11.85;;;;;;;;;;5006200;28;20205;-63
2022/09/30 06:44:16;;;;;;;19.48;11.32;;;;;;;;;;5007017;28;20543;-63
2022/09/30 06:46:41;;;;;;;23.20;12.15;;;;;;;;;;5007344;28;20291;-63
2022/09/30 06:49:07;;;;;;;21.50;11.90;;;;;;;;;;5007233;28;20723;-63
2022/09/30 06:51:32;;;;;;;26.00;11.80;;;;;;;;;;5006410;28;20392;-63
2022/09/30 06:53:58;;;;;;;17.88;10.82;;;;;;;;;;5005622;28;20332;-63
2022/09/30 06:56:23;;;;;;;18.45;10.30;;;;;;;;;;5005466;28;20239;-63
2022/09/30 06:58:49;;;;;;;19.40;10.77;;;;;;;;;;5004570;28;20624;-63
2022/09/30 07:01:14;;;;;;;15.82;10.85;;;;;;;;;;5004261;28;20254;-64
2022/09/30 07:03:40;;;;;;;16.13;10.40;;;;;;;;;;5006529;28;20416;-63
2022/09/30 07:06:05;;;;;;;18.10;10.75;;;;;;;;;;5004472;28;20213;-62
2022/09/30 07:08:31;;;;;;;19.02;10.00;;;;;;;;;;5008465;28;20258;-61
2022/09/30 07:10:58;;;;;;;17.52;10.07;;;;;;;;;;5006199;28;20213;-62
2022/09/30 07:13:23;;;;;;;15.38;9.88;;;;;;;;;;5005365;28;20220;-62
2022/09/30 07:15:51;;;;;;;16.98;10.38;;;;;;;;;;5005493;28;20224;-62
2022/09/30 07:18:19;;;;;;;13.00;9.63;;;;;;;;;;5006594;28;20611;-61
2022/09/30 07:20:47;;;;;;;15.52;10.48;;;;;;;;;;5004495;28;20215;-61
2022/09/30 07:23:12;;;;;;;15.32;10.40;;;;;;;;;;5005136;28;20680;-62
2022/09/30 07:25:37;;;;;;;14.38;8.38;;;;;;;;;;5004579;28;20219;-61
2022/09/30 07:28:02;;;;;;;11.40;8.23;;;;;;;;;;5005970;28;20258;-61
2022/09/30 07:30:30;;;;;;;11.35;8.60;;;;;;;;;;5005362;28;20204;-61
2022/09/30 07:32:55;;;;;;;11.50;8.98;;;;;;;;;;5006734;28;20208;-61
2022/09/30 07:35:20;;;;;;;10.77;8.20;;;;;;;;;;5006088;28;20227;-61
2022/09/30 07:37:46;;;;;;;14.07;10.00;;;;;;;;;;5008440;28;20323;-61
2022/09/30 07:40:11;;;;;;;12.63;9.75;;;;;;;;;;5007864;28;20216;-61
2022/09/30 07:42:37;;;;;;;14.32;9.95;;;;;;;;;;5005055;28;20216;-61
2022/09/30 07:45:02;;;;;;;12.43;9.63;;;;;;;;;;5004815;28;20707;-61
2022/09/30 07:47:28;;;;;;;12.57;9.65;;;;;;;;;;5006602;28;20270;-61
2022/09/30 07:49:53;;;;;;;17.25;13.02;;;;;;;;;;5005998;28;20272;-60
2022/09/30 07:52:18;;;;;;;16.95;13.52;;;;;;;;;;5008545;28;20216;-60
2022/09/30 07:54:44;;;;;;;15.23;12.27;;;;;;;;;;4991936;28;20282;-60
2022/09/30 07:57:09;;;;;;;17.65;13.63;;;;;;;;;;4987661;28;20549;-61
2022/09/30 07:59:37;;;;;;;19.15;15.18;;;;;;;;;;4993158;28;20212;-61
2022/09/30 08:02:02;;;;;;;16.75;14.13;;;;;;;;;;4992106;28;20204;-61
2022/09/30 08:04:28;;;;;;;18.25;15.73;;;;;;;;;;4998086;28;20220;-61
2022/09/30 08:06:55;;;;;;;17.05;15.23;;;;;;;;;;5000688;28;20694;-61
2022/09/30 08:09:20;;;;;;;20.15;14.65;;;;;;;;;;4998165;28;20699;-61
2022/09/30 08:11:46;;;;;;;17.73;14.27;;;;;;;;;;4997708;28;20300;-60
2022/09/30 08:14:13;;;;;;;17.42;14.90;;;;;;;;;;4997739;28;20205;-61
2022/09/30 08:16:38;;;;;;;20.00;16.40;;;;;;;;;;4998944;28;20239;-61
2022/09/30 08:19:03;;;;;;;18.33;15.30;;;;;;;;;;4992493;28;20881;-61
2022/09/30 08:21:29;;;;;;;17.45;15.52;;;;;;;;;;4993646;28;20431;-61
2022/09/30 08:23:54;;;;;;;17.25;14.93;;;;;;;;;;4990412;28;20201;-61
2022/09/30 08:26:19;;;;;;;20.00;17.73;;;;;;;;;;4993162;28;20494;-61
2022/09/30 08:28:47;;;;;;;21.55;17.73;;;;;;;;;;4993386;28;20220;-61
2022/09/30 08:31:13;;;;;;;18.85;16.85;;;;;;;;;;5012932;28;20217;-61
2022/09/30 08:33:38;;;;;;;22.63;18.80;;;;;;;;;;5003239;28;20737;-61
2022/09/30 08:36:04;;;;;;;24.30;20.15;;;;;;;;;;5003575;28;20216;-61
2022/09/30 08:38:30;;;;;;;23.10;19.15;;;;;;;;;;5001739;28;20219;-61
2022/09/30 08:40:58;;;;;;;21.65;19.33;;;;;;;;;;5002945;28;20208;-61
2022/09/30 08:43:26;;;;;;;20.77;18.58;;;;;;;;;;5001945;28;20213;-61
2022/09/30 08:45:56;;;;;;;20.73;18.48;;;;;;;;;;4997355;28;20225;-61
2022/09/30 08:48:25;;;;;;;23.80;19.88;;;;;;;;;;4995161;28;20216;-61
2022/09/30 08:50:59;;;;;;;21.73;19.52;;;;;;;;;;4995842;28;20420;-61
2022/09/30 08:53:25;;;;;;;23.27;18.88;;;;;;;;;;4999546;28;20710;-61
2022/09/30 08:55:50;;;;;;;21.25;18.90;;;;;;;;;;5001944;28;20232;-61
2022/09/30 08:58:16;;;;;;;23.52;21.02;;;;;;;;;;5003497;28;20578;-61
2022/09/30 09:00:41;;;;;;;22.17;19.35;;;;;;;;;;5001261;28;20220;-62
2022/09/30 09:03:08;;;;;;;20.83;18.65;;;;;;;;;;5002598;28;20232;-62
2022/09/30 09:05:38;;;;;;;21.95;19.55;;;;;;;;;;5003580;28;20683;-63
2022/09/30 09:08:07;;;;;;;21.60;19.13;;;;;;;;;;4999179;28;20216;-63
2022/09/30 09:10:38;;;;;;;22.13;19.83;;;;;;;;;;4994530;28;20215;-63
2022/09/30 09:13:07;;;;;;;21.38;17.25;;;;;;;;;;4993875;28;20286;-62
2022/09/30 09:15:39;;;;;;;21.88;19.55;;;;;;;;;;4996605;28;20209;-62
2022/09/30 09:18:09;;;;;;;20.63;18.48;;;;;;;;;;5001216;28;20634;-62
2022/09/30 09:20:36;;;;;;;21.00;18.90;;;;;;;;;;5003559;28;20227;-62
2022/09/30 09:23:02;;;;;;;19.73;17.63;;;;;;;;;;5000896;28;20250;-63
2022/09/30 09:25:27;;;;;;;20.00;17.20;;;;;;;;;;5002433;28;20535;-62
2022/09/30 09:28:00;;;;;;;20.80;17.85;;;;;;;;;;5002434;28;20204;-62
2022/09/30 09:30:27;;;;;;;17.15;15.35;;;;;;;;;;5000910;28;20227;-62
2022/09/30 09:32:54;;;;;;;17.67;15.80;;;;;;;;;;4994459;28;20560;-62
2022/09/30 09:35:34;;;;;;;18.02;16.23;;;;;;;;;;4994069;28;20275;-62
2022/09/30 09:40:56;;;;;;;17.20;14.90;;;;;;;;;;5001399;28;20277;-62
2022/09/30 09:43:25;;;;;;;16.75;13.50;;;;;;;;;;5000770;28;20269;-63
2022/09/30 09:45:55;;;;;;;14.45;12.90;;;;;;;;;;5000631;28;20266;-63
2022/09/30 09:48:20;;;;;;;14.32;12.75;;;;;;;;;;4984359;28;20750;-62
2022/09/30 09:50:49;;;;;;;16.67;13.65;;;;;;;;;;5001771;28;20263;-63
2022/09/30 09:53:18;;;;;;;14.20;12.32;;;;;;;;;;5000707;28;20715;-63
2022/09/30 09:55:44;;;;;;;15.25;12.40;;;;;;;;;;4993557;28;20251;-62
2022/09/30 09:58:12;;;;;;;15.57;13.30;;;;;;;;;;4994964;28;20299;-63
2022/09/30 10:03:11;;;;;;;14.07;12.63;;;;;;;;;;4999660;28;20216;-62
2022/09/30 10:05:43;;;;;;;14.25;12.75;;;;;;;;;;5001990;28;20358;-62
2022/09/30 10:08:09;;;;;;;14.20;12.60;;;;;;;;;;5001295;28;20219;-63
2022/09/30 10:10:41;;;;;;;14.40;12.88;;;;;;;;;;5000760;28;20220;-63
2022/09/30 10:13:13;;;;;;;14.48;12.70;;;;;;;;;;5000385;28;20204;-63
2022/09/30 10:15:40;;;;;;;15.73;12.60;;;;;;;;;;4999419;28;20657;-63
2022/09/30 10:18:12;;;;;;;13.95;11.15;;;;;;;;;;4993083;28;20232;-63
2022/09/30 10:20:38;;;;;;;12.05;10.75;;;;;;;;;;4993778;28;20204;-63
2022/09/30 10:23:09;;;;;;;11.25;10.07;;;;;;;;;;4997352;28;20215;-63
2022/09/30 10:25:34;;;;;;;13.15;11.07;;;;;;;;;;5001486;28;20656;-63
2022/09/30 10:28:00;;;;;;;13.77;10.20;;;;;;;;;;5001958;28;20219;-63
2022/09/30 10:30:44;;;;;;;12.25;9.73;;;;;;;;;;5000753;28;20361;-63
2022/09/30 10:33:28;;;;;;;11.82;9.80;;;;;;;;;;5000343;28;20551;-63
2022/09/30 10:36:01;;;;;;;11.93;9.50;;;;;;;;;;5002989;28;20216;-63
2022/09/30 10:38:28;;;;;;;11.00;8.80;;;;;;;;;;4998208;28;20839;-63
2022/09/30 10:40:53;;;;;;;11.60;10.40;;;;;;;;;;4993557;28;20212;-63
2022/09/30 10:43:26;;;;;;;14.75;10.82;;;;;;;;;;4993236;28;20660;-63
2022/09/30 10:45:52;;;;;;;13.38;11.05;;;;;;;;;;4997131;28;20209;-63
2022/09/30 10:48:18;;;;;;;10.98;9.68;;;;;;;;;;5001636;28;20215;-63
2022/09/30 10:50:50;;;;;;;13.43;10.20;;;;;;;;;;5002249;28;20212;-63
2022/09/30 10:53:20;;;;;;;10.02;8.93;;;;;;;;;;5000561;28;20505;-63
2022/09/30 10:55:45;;;;;;;11.77;9.50;;;;;;;;;;5000722;28;20236;-63
2022/09/30 10:58:21;;;;;;;12.02;8.93;;;;;;;;;;5001274;28;20228;-63
2022/09/30 11:00:46;;;;;;;11.70;9.23;;;;;;;;;;5000075;28;20208;-63
2022/09/30 11:03:13;;;;;;;10.48;9.38;;;;;;;;;;4993715;28;20581;-62
2022/09/30 11:05:40;;;;;;;11.02;9.23;;;;;;;;;;5001648;28;20216;-63
2022/09/30 11:08:13;;;;;;;10.93;9.60;;;;;;;;;;5001678;28;20528;-63
2022/09/30 11:10:47;;;;;;;13.65;10.55;;;;;;;;;;5002461;28;20200;-63
2022/09/30 11:13:15;;;;;;;13.23;10.93;;;;;;;;;;5006948;28;20494;-63
2022/09/30 11:15:51;;;;;;;11.10;10.00;;;;;;;;;;5004910;28;20227;-63
2022/09/30 11:18:21;;;;;;;12.10;10.52;;;;;;;;;;5005436;28;20228;-63
2022/09/30 11:20:48;;;;;;;10.40;9.30;;;;;;;;;;5005098;28;20556;-63
2022/09/30 11:23:13;;;;;;;11.65;10.13;;;;;;;;;;5005434;28;20208;-63
2022/09/30 11:25:41;;;;;;;12.32;9.95;;;;;;;;;;5006952;28;20620;-63
2022/09/30 11:28:13;;;;;;;10.38;9.27;;;;;;;;;;5006044;28;20259;-63
2022/09/30 11:30:42;;;;;;;12.35;10.13;;;;;;;;;;5005769;28;20281;-63
2022/09/30 11:33:17;;;;;;;13.32;10.25;;;;;;;;;;5006653;28;20209;-63
2022/09/30 11:35:52;;;;;;;10.18;8.93;;;;;;;;;;5006564;28;20235;-63
2022/09/30 11:38:17;;;;;;;9.80;7.88;;;;;;;;;;5005136;28;20310;-63
2022/09/30 11:40:50;;;;;;;10.07;8.40;;;;;;;;;;5006699;28;20299;-63
2022/09/30 11:43:24;;;;;;;9.57;7.85;;;;;;;;;;5004484;28;20254;-63
2022/09/30 11:45:49;;;;;;;11.85;7.30;;;;;;;;;;5010751;28;20247;-63
2022/09/30 11:48:18;;;;;;;10.15;7.60;;;;;;;;;;5012121;28;20295;-63
2022/09/30 11:50:49;;;;;;;10.73;6.75;;;;;;;;;;5011675;28;20683;-63
2022/09/30 11:53:15;;;;;;;7.90;6.60;;;;;;;;;;5010778;28;20219;-63
2022/09/30 11:55:40;;;;;;;8.60;6.72;;;;;;;;;;5011170;28;20379;-63
2022/09/30 11:58:07;;;;;;;8.15;7.07;;;;;;;;;;5011914;28;20657;-63
2022/09/30 12:00:33;;;;;;;10.27;6.85;;;;;;;;;;5011198;28;20217;-63
2022/09/30 12:03:00;;;;;;;9.05;6.78;;;;;;;;;;5010216;28;20255;-63
2022/09/30 12:05:35;;;;;;;9.60;6.10;;;;;;;;;;5011230;28;20208;-63
2022/09/30 12:08:08;;;;;;;10.77;6.75;;;;;;;;;;5014066;28;20298;-63
2022/09/30 12:10:34;;;;;;;9.20;7.20;;;;;;;;;;5014039;28;20251;-63
2022/09/30 12:13:02;;;;;;;11.02;7.70;;;;;;;;;;5014488;28;20227;-63
2022/09/30 12:15:28;;;;;;;10.38;6.78;;;;;;;;;;5014040;28;20220;-63
2022/09/30 12:17:54;;;;;;;10.38;7.13;;;;;;;;;;5013727;28;20212;-63
2022/09/30 12:20:27;;;;;;;10.10;7.28;;;;;;;;;;5014355;28;20224;-63
2022/09/30 12:22:54;;;;;;;12.60;7.50;;;;;;;;;;5015790;28;20216;-63
2022/09/30 12:25:21;;;;;;;11.82;8.50;;;;;;;;;;5013560;28;20204;-63
2022/09/30 12:30:16;;;;;;;12.07;7.63;;;;;;;;;;5014266;28;20212;-63
2022/09/30 12:30:56;;;;;;;10.30;7.57;;;;;;;;;;5014285;28;20216;-63
2022/09/30 12:33:26;;;;;;;12.25;8.18;;;;;;;;;;5014112;28;20224;-63
2022/09/30 12:35:55;;;;;;;12.27;8.70;;;;;;;;;;5015823;28;20223;-62
2022/09/30 12:38:39;;;;;;;10.68;8.45;;;;;;;;;;5014441;28;20266;-62
2022/09/30 12:41:10;;;;;;;11.50;8.80;;;;;;;;;;5014903;28;20223;-62
2022/09/30 12:43:37;;;;;;;13.73;9.02;;;;;;;;;;5014623;28;20224;-63
2022/09/30 12:46:04;;;;;;;11.68;8.00;;;;;;;;;;5013739;28;20216;-63
2022/09/30 12:48:33;;;;;;;12.55;8.88;;;;;;;;;;5014933;28;20207;-63
2022/09/30 12:50:58;;;;;;;12.05;7.95;;;;;;;;;;5013755;28;20212;-63
2022/09/30 12:53:26;;;;;;;9.48;6.85;;;;;;;;;;5013405;28;20254;-63
2022/09/30 12:55:51;;;;;;;12.82;8.70;;;;;;;;;;5014762;28;20675;-63
2022/09/30 12:58:24;;;;;;;10.70;7.65;;;;;;;;;;5012810;28;20278;-62
2022/09/30 13:01:01;;;;;;;9.30;5.70;;;;;;;;;;5014415;28;20216;-63
2022/09/30 13:03:26;;;;;;;7.28;5.30;;;;;;;;;;5014550;28;20629;-63
2022/09/30 13:05:53;;;;;;;7.93;5.78;;;;;;;;;;5013961;28;20300;-62
2022/09/30 13:08:18;;;;;;;8.90;5.65;;;;;;;;;;5012731;28;20220;-63
2022/09/30 13:10:43;;;;;;;8.90;5.50;;;;;;;;;;5017484;28;20210;-62
2022/09/30 13:13:09;;;;;;;7.32;4.93;;;;;;;;;;5014704;28;20552;-63
2022/09/30 13:15:35;;;;;;;7.38;5.07;;;;;;;;;;5013918;28;20741;-63
2022/09/30 13:18:01;;;;;;;7.43;4.55;;;;;;;;;;5012828;28;20244;-62
2022/09/30 13:20:46;;;;;;;6.53;3.90;;;;;;;;;;5014028;28;20208;-62
2022/09/30 13:23:11;;;;;;;5.78;3.50;;;;;;;;;;5014143;28;20211;-63
2022/09/30 13:25:51;;;;;;;4.68;2.85;;;;;;;;;;5013520;28;20291;-63
2022/09/30 13:28:20;;;;;;;6.72;2.95;;;;;;;;;;5013462;28;20227;-62
2022/09/30 13:30:45;;;;;;;5.47;2.50;;;;;;;;;;5014677;28;20260;-62
2022/09/30 13:33:27;;;;;;;3.95;2.28;;;;;;;;;;5013939;28;20709;-63
2022/09/30 13:35:55;;;;;;;5.47;2.47;;;;;;;;;;5007276;28;20200;-63
2022/09/30 13:38:23;;;;;;;5.13;2.28;;;;;;;;;;5006531;28;20235;-62
2022/09/30 13:40:49;;;;;;;2.42;1.80;;;;;;;;;;5008933;28;20216;-63
2022/09/30 13:43:24;;;;;;;2.95;2.00;;;;;;;;;;5004984;28;20672;-63
2022/09/30 13:45:50;;;;;;;3.22;1.50;;;;;;;;;;5007368;28;20207;-62
2022/09/30 13:48:19;;;;;;;2.35;1.60;;;;;;;;;;5005682;28;20216;-62
2022/09/30 13:50:51;;;;;;;2.63;1.60;;;;;;;;;;5006897;28;20201;-63
2022/09/30 13:53:28;;;;;;;3.15;1.67;;;;;;;;;;5006662;28;20311;-63
2022/09/30 13:55:54;;;;;;;2.53;1.40;;;;;;;;;;5008045;28;20548;-62
2022/09/30 13:58:28;;;;;;;2.22;1.30;;;;;;;;;;5006537;28;20286;-62
2022/09/30 14:00:55;;;;;;;3.90;1.27;;;;;;;;;;5010723;28;20489;-62
2022/09/30 14:03:39;;;;;;;1.50;1.20;;;;;;;;;;5026616;28;20230;-62
2022/09/30 14:06:22;;;;;;;1.88;1.10;;;;;;;;;;5027138;28;20692;-63
2022/09/30 14:08:52;;;;;;;2.95;1.30;;;;;;;;;;5027993;28;20219;-62
2022/09/30 14:11:23;;;;;;;3.35;1.30;;;;;;;;;;5004588;28;20216;-62
2022/09/30 14:13:51;;;;;;;3.22;1.30;;;;;;;;;;5008205;28;20212;-62
2022/09/30 14:16:22;;;;;;;3.15;1.00;;;;;;;;;;5006996;28;20251;-62
2022/09/30 14:18:52;;;;;;;3.00;2.10;;;;;;;;;;5010581;28;20206;-62
2022/09/30 14:21:25;;;;;;;2.63;1.20;;;;;;;;;;5025021;28;20611;-62
2022/09/30 14:23:56;;;;;;;2.92;1.38;;;;;;;;;;5025454;28;20212;-62
2022/09/30 14:26:28;;;;;;;1.80;1.10;;;;;;;;;;5027406;28;20778;-62
2022/09/30 14:28:56;;;;;;;2.45;1.30;;;;;;;;;;5026273;28;20211;-62
2022/09/30 14:31:21;;;;;;;2.30;1.10;;;;;;;;;;5025082;28;20200;-62
2022/09/30 14:33:47;;;;;;;3.25;1.20;;;;;;;;;;5027523;28;20234;-62
2022/09/30 14:36:14;;;;;;;2.40;1.20;;;;;;;;;;5025641;28;20196;-62
2022/09/30 14:38:41;;;;;;;3.25;1.20;;;;;;;;;;5027360;28;20294;-62
2022/09/30 14:41:11;;;;;;;2.17;0.95;;;;;;;;;;5026767;28;20212;-62